Time;durP1;ratioP1;P1;durP2;ratioP2;P2;SDS_P1;SDS_P2;PMS_P1;PMS_P2;Temp;Humidity;BMP_temperature;BMP_pressure;BME280_temperature;BME280_humidity;BME280_pressure;Samples;Min_cycle;Max_cycle;Signal;HPM_P1;HPM_P2
2022/01/07 00:01:32;;;;;;;15.52;8.25;;;;;;;4.76;62.08;99185.78;5092329;28;20028;-47
2022/01/07 00:03:58;;;;;;;14.00;7.47;;;;;;;4.56;61.47;99191.13;5092403;28;20024;-48
2022/01/07 00:06:24;;;;;;;14.73;8.18;;;;;;;4.18;60.72;99189.63;5092196;28;20032;-47
2022/01/07 00:08:50;;;;;;;16.52;8.40;;;;;;;3.78;61.58;99185.63;5090947;28;20020;-49
2022/01/07 00:11:16;;;;;;;14.23;8.10;;;;;;;3.48;62.41;99195.31;5090932;28;20031;-48
2022/01/07 00:13:42;;;;;;;12.43;7.40;;;;;;;3.28;62.71;99197.16;5091178;28;20035;-48
2022/01/07 00:16:08;;;;;;;13.73;7.68;;;;;;;3.20;63.00;99199.63;5092158;28;20039;-49
2022/01/07 00:18:34;;;;;;;20.15;8.30;;;;;;;3.14;62.94;99192.38;5090826;28;20020;-48
2022/01/07 00:21:00;;;;;;;19.08;8.23;;;;;;;3.00;63.34;99191.88;5092066;28;20073;-47
2022/01/07 00:23:25;;;;;;;19.45;9.70;;;;;;;2.90;63.51;99188.50;5092033;28;20017;-48
2022/01/07 00:25:51;;;;;;;19.48;10.80;;;;;;;2.84;63.60;99190.81;5091702;28;20071;-48
2022/01/07 00:28:18;;;;;;;19.13;10.55;;;;;;;2.63;63.64;99191.78;5092047;28;20031;-48
2022/01/07 00:30:44;;;;;;;22.30;11.10;;;;;;;2.36;63.78;99200.25;5092008;28;20024;-48
2022/01/07 00:33:10;;;;;;;19.65;10.93;;;;;;;2.23;64.54;99194.47;5091938;28;20021;-48
2022/01/07 00:35:36;;;;;;;22.95;10.38;;;;;;;2.15;64.93;99193.41;5091921;28;20035;-48
2022/01/07 00:38:02;;;;;;;15.13;9.07;;;;;;;2.18;65.16;99194.91;5091936;28;20024;-48
2022/01/07 00:40:28;;;;;;;18.98;9.20;;;;;;;2.14;64.78;99194.34;5091913;28;20078;-48
2022/01/07 00:42:54;;;;;;;23.73;10.65;;;;;;;2.00;65.47;99186.97;5090511;28;20024;-48
2022/01/07 00:45:21;;;;;;;19.98;10.25;;;;;;;1.98;65.72;99184.50;5090423;28;20039;-49
2022/01/07 00:47:48;;;;;;;14.25;10.00;;;;;;;1.98;65.39;99188.84;5090509;28;20024;-49
2022/01/07 00:50:15;;;;;;;19.30;10.98;;;;;;;1.93;65.85;99193.59;5091758;28;20517;-49
2022/01/07 00:52:41;;;;;;;16.02;9.55;;;;;;;1.87;66.41;99188.94;5091709;28;20024;-48
2022/01/07 00:55:09;;;;;;;19.85;9.57;;;;;;;1.84;66.11;99191.81;5091682;28;20497;-48
2022/01/07 00:57:35;;;;;;;15.65;10.10;;;;;;;1.86;66.41;99197.69;5093117;28;20045;-48
2022/01/07 01:00:02;;;;;;;22.45;10.70;;;;;;;1.86;66.41;99188.16;5094539;28;20031;-48
2022/01/07 01:02:28;;;;;;;18.83;10.02;;;;;;;1.99;66.27;99190.47;5095812;28;20089;-47
2022/01/07 01:04:53;;;;;;;15.77;9.63;;;;;;;1.99;66.04;99185.31;5095705;28;20075;-48
2022/01/07 01:07:19;;;;;;;14.88;9.73;;;;;;;1.95;66.03;99194.28;5095680;28;20020;-47
2022/01/07 01:09:45;;;;;;;18.38;9.63;;;;;;;1.97;66.51;99195.81;5095671;28;20181;-48
2022/01/07 01:12:11;;;;;;;77.55;59.60;;;;;;;2.05;66.20;99191.72;5095635;28;20028;-47
2022/01/07 01:14:37;;;;;;;52.42;33.70;;;;;;;2.15;66.10;99197.75;5094276;28;20432;-49
2022/01/07 01:17:04;;;;;;;67.72;53.67;;;;;;;2.24;65.71;99190.97;5095497;28;20600;-49
2022/01/07 01:19:29;;;;;;;41.05;30.95;;;;;;;2.28;65.72;99197.50;5095502;28;20031;-47
2022/01/07 01:21:55;;;;;;;19.55;11.57;;;;;;;2.34;65.21;99189.19;5094145;28;20393;-48
2022/01/07 01:24:22;;;;;;;15.32;9.30;;;;;;;2.15;65.18;99184.78;5094104;28;20517;-47
2022/01/07 01:26:48;;;;;;;23.92;10.73;;;;;;;1.90;65.64;99181.75;5093677;28;20088;-48
2022/01/07 01:29:13;;;;;;;18.75;8.73;;;;;;;1.82;65.89;99180.78;5095302;28;20089;-48
2022/01/07 01:31:39;;;;;;;16.40;9.45;;;;;;;1.76;66.67;99185.53;5095265;28;20035;-48
2022/01/07 01:34:05;;;;;;;16.05;8.82;;;;;;;1.88;66.48;99180.25;5093916;28;20507;-47
2022/01/07 01:36:32;;;;;;;15.43;9.35;;;;;;;1.96;66.74;99183.81;5095176;28;20548;-48
2022/01/07 01:38:59;;;;;;;14.00;9.20;;;;;;;1.97;66.21;99184.63;5095116;28;20497;-48
2022/01/07 01:41:25;;;;;;;17.55;9.50;;;;;;;1.83;66.49;99182.41;5093782;28;20024;-48
2022/01/07 01:43:51;;;;;;;17.35;10.05;;;;;;;1.75;66.45;99194.25;5095065;28;20448;-47
2022/01/07 01:46:19;;;;;;;14.98;9.50;;;;;;;1.85;66.17;99196.03;5094816;28;20081;-47
2022/01/07 01:48:45;;;;;;;15.38;8.85;;;;;;;1.89;66.17;99203.41;5094947;28;20095;-47
2022/01/07 01:51:12;;;;;;;15.18;9.30;;;;;;;1.92;66.28;99207.50;5094847;28;20067;-48
2022/01/07 01:53:38;;;;;;;20.77;10.02;;;;;;;1.92;66.25;99208.31;5094931;28;20073;-48
2022/01/07 01:56:04;;;;;;;16.77;10.07;;;;;;;1.94;66.15;99208.19;5094738;28;20036;-48
2022/01/07 01:58:30;;;;;;;15.23;9.75;;;;;;;1.97;66.49;99207.91;5094826;28;20016;-48
2022/01/07 02:00:56;;;;;;;13.00;8.85;;;;;;;2.07;66.13;99208.75;5093438;28;20028;-47
2022/01/07 02:03:22;;;;;;;31.15;19.27;;;;;;;2.09;66.22;99208.63;5094652;28;20103;-48
2022/01/07 02:05:48;;;;;;;20.40;14.23;;;;;;;2.03;65.88;99209.97;5094463;28;20036;-48
2022/01/07 02:08:14;;;;;;;19.33;12.80;;;;;;;1.92;66.70;99213.50;5093166;28;20020;-48
2022/01/07 02:10:40;;;;;;;19.17;11.27;;;;;;;1.97;66.40;99213.94;5092459;28;20031;-48
2022/01/07 02:13:06;;;;;;;21.58;15.63;;;;;;;1.88;66.18;99206.13;5094478;28;20029;-47
2022/01/07 02:15:32;;;;;;;19.27;11.10;;;;;;;1.64;66.67;99206.47;5094397;28;20031;-48
2022/01/07 02:17:58;;;;;;;12.65;10.55;;;;;;;1.36;66.93;99201.03;5094365;28;20051;-47
2022/01/07 02:20:28;;;;;;;17.70;10.30;;;;;;;1.12;67.71;99204.69;5094290;28;20024;-48
2022/01/07 02:22:56;;;;;;;17.23;10.90;;;;;;;0.89;68.59;99203.19;5092975;28;20028;-48
2022/01/07 02:25:22;;;;;;;18.10;10.05;;;;;;;0.68;69.50;99195.41;5092809;28;20047;-48
2022/01/07 02:27:48;;;;;;;17.83;10.00;;;;;;;0.55;70.12;99195.59;5092689;28;20414;-48
2022/01/07 02:30:24;;;;;;;19.13;11.02;;;;;;;0.62;69.78;99195.91;5094097;28;20017;-48
2022/01/07 02:32:50;;;;;;;21.20;11.27;;;;;;;0.92;69.16;99203.75;5094173;28;20115;-47
2022/01/07 02:35:20;;;;;;;15.02;9.30;;;;;;;1.13;68.74;99195.19;5093976;28;20052;-47
2022/01/07 02:37:46;;;;;;;21.55;13.63;;;;;;;1.28;69.01;99196.47;5094084;28;20034;-49
2022/01/07 02:40:12;;;;;;;18.75;10.55;;;;;;;1.56;68.72;99204.50;5092558;28;20464;-47
2022/01/07 02:42:39;;;;;;;17.20;10.25;;;;;;;1.75;68.02;99196.84;5093921;28;20031;-48
2022/01/07 02:45:08;;;;;;;25.38;9.52;;;;;;;1.87;66.92;99202.75;5093736;28;20016;-47
2022/01/07 02:47:55;;;;;;;17.88;9.15;;;;;;;1.98;66.96;99197.44;5093818;28;20500;-48
2022/01/07 02:50:27;;;;;;;14.43;8.43;;;;;;;2.10;66.70;99198.16;5093813;28;20497;-48
2022/01/07 02:52:54;;;;;;;19.60;9.07;;;;;;;2.12;66.55;99193.66;5093713;28;20016;-47
2022/01/07 02:55:21;;;;;;;14.07;8.73;;;;;;;2.19;65.94;99188.75;5093632;28;20020;-48
2022/01/07 02:57:48;;;;;;;16.17;9.57;;;;;;;2.18;65.36;99187.13;5093590;28;20024;-48
2022/01/07 03:00:16;;;;;;;21.48;13.77;;;;;;;2.08;65.50;99179.34;5093581;28;20070;-48
2022/01/07 03:02:43;;;;;;;20.23;9.00;;;;;;;1.91;65.19;99185.16;5092145;28;20042;-48
2022/01/07 03:05:09;;;;;;;16.25;8.88;;;;;;;1.75;65.85;99186.50;5093382;28;20046;-48
2022/01/07 03:07:38;;;;;;;33.85;22.92;;;;;;;1.71;65.48;99177.34;5092112;28;20024;-48
2022/01/07 03:10:05;;;;;;;16.83;10.20;;;;;;;1.59;66.40;99179.22;5093321;28;20058;-48
2022/01/07 03:12:30;;;;;;;17.83;9.23;;;;;;;1.76;66.77;99184.72;5093348;28;20028;-48
2022/01/07 03:14:56;;;;;;;14.27;9.88;;;;;;;1.91;66.38;99185.16;5093249;28;20046;-48
2022/01/07 03:17:22;;;;;;;20.90;12.45;;;;;;;1.67;65.46;99185.47;5093193;28;20070;-47
2022/01/07 03:19:47;;;;;;;17.77;8.82;;;;;;;1.41;66.51;99198.88;5093160;28;20024;-48
2022/01/07 03:22:13;;;;;;;14.88;8.75;;;;;;;1.45;66.14;99197.66;5093121;28;20031;-48
2022/01/07 03:24:40;;;;;;;17.48;9.13;;;;;;;1.63;66.76;99200.47;5093012;28;20016;-48
2022/01/07 03:27:06;;;;;;;16.58;8.75;;;;;;;1.88;66.96;99198.38;5092743;28;20047;-47
2022/01/07 03:29:32;;;;;;;17.65;8.27;;;;;;;1.92;65.71;99197.97;5091690;28;20084;-48
2022/01/07 03:31:58;;;;;;;17.80;7.90;;;;;;;1.84;65.88;99197.81;5092873;28;20028;-48
2022/01/07 03:34:23;;;;;;;20.48;8.05;;;;;;;1.93;66.21;99193.59;5092914;28;20020;-47
2022/01/07 03:36:49;;;;;;;15.38;9.38;;;;;;;2.13;65.83;99187.53;5092857;28;20028;-48
2022/01/07 03:39:15;;;;;;;16.15;9.57;;;;;;;2.30;65.52;99195.59;5091480;28;20016;-48
2022/01/07 03:41:40;;;;;;;15.65;8.30;;;;;;;2.45;65.17;99189.03;5092799;28;20024;-48
2022/01/07 03:44:06;;;;;;;12.00;8.30;;;;;;;2.69;64.66;99187.81;5092745;28;20077;-47
2022/01/07 03:46:31;;;;;;;77.80;69.45;;;;;;;2.65;64.49;99186.47;5092604;28;20056;-47
2022/01/07 03:48:57;;;;;;;22.50;13.05;;;;;;;2.79;64.56;99193.81;5092641;28;20016;-48
2022/01/07 03:51:23;;;;;;;16.42;9.25;;;;;;;2.95;64.60;99198.44;5091197;28;20110;-49
2022/01/07 03:53:48;;;;;;;14.48;9.50;;;;;;;3.11;63.66;99187.50;5092541;28;20102;-48
2022/01/07 03:56:17;;;;;;;12.80;9.20;;;;;;;3.12;63.50;99200.34;5092499;28;20486;-49
2022/01/07 03:58:44;;;;;;;17.75;9.50;;;;;;;3.27;63.30;99199.88;5092465;28;20501;-47
2022/01/07 04:01:10;;;;;;;13.85;9.07;;;;;;;3.43;63.37;99201.91;5092377;28;20493;-48
2022/01/07 04:03:36;;;;;;;17.95;9.10;;;;;;;3.65;62.44;99205.91;5092325;28;20393;-48
2022/01/07 04:06:02;;;;;;;14.20;8.57;;;;;;;3.70;62.01;99214.91;5090932;28;20024;-49
2022/01/07 04:08:28;;;;;;;11.30;7.32;;;;;;;3.58;61.61;99203.88;5092303;28;20055;-48
2022/01/07 04:10:54;;;;;;;19.40;9.13;;;;;;;3.48;61.87;99200.50;5092201;28;20102;-48
2022/01/07 04:13:19;;;;;;;14.35;8.02;;;;;;;3.39;61.33;99202.16;5092542;28;20024;-49
2022/01/07 04:15:45;;;;;;;15.93;8.55;;;;;;;3.25;61.55;99196.63;5092209;28;20028;-48
2022/01/07 04:18:11;;;;;;;16.30;9.15;;;;;;;3.32;62.01;99197.66;5092140;28;20016;-49
2022/01/07 04:20:37;;;;;;;15.38;7.85;;;;;;;3.38;61.63;99200.53;5092118;28;20379;-49
2022/01/07 04:23:05;;;;;;;24.27;10.52;;;;;;;3.36;61.47;99201.63;5090768;28;20073;-48
2022/01/07 04:25:31;;;;;;;15.65;8.13;;;;;;;3.27;61.31;99205.06;5091956;28;20448;-49
2022/01/07 04:28:08;;;;;;;16.15;8.23;;;;;;;3.08;61.46;99205.91;5090485;28;20465;-48
2022/01/07 04:30:36;;;;;;;13.70;8.77;;;;;;;2.98;61.68;99208.56;5092036;28;20036;-48
2022/01/07 04:33:04;;;;;;;13.55;8.55;;;;;;;2.94;62.03;99204.59;5090204;28;20371;-47
2022/01/07 04:35:32;;;;;;;19.35;8.27;;;;;;;2.94;62.25;99204.59;5091913;28;20489;-49
2022/01/07 04:37:58;;;;;;;18.83;8.80;;;;;;;2.96;62.19;99205.28;5090571;28;20449;-49
2022/01/07 04:40:24;;;;;;;16.45;9.25;;;;;;;2.90;61.78;99205.84;5091906;28;20051;-48
2022/01/07 04:42:50;;;;;;;16.48;9.70;;;;;;;2.62;62.22;99212.63;5091871;28;20498;-48
2022/01/07 04:45:16;;;;;;;16.05;11.48;;;;;;;2.56;62.52;99209.66;5091770;28;20035;-48
2022/01/07 04:47:42;;;;;;;15.70;9.27;;;;;;;2.59;62.88;99214.53;5091824;28;20021;-48
2022/01/07 04:50:14;;;;;;;17.63;9.90;;;;;;;2.63;63.12;99212.50;5091844;28;20028;-47
2022/01/07 04:52:43;;;;;;;13.82;9.02;;;;;;;2.61;62.72;99196.28;5090564;28;20454;-48
2022/01/07 04:55:11;;;;;;;16.17;9.18;;;;;;;2.54;62.74;99206.38;5091799;28;20050;-47
2022/01/07 04:57:36;;;;;;;15.13;9.63;;;;;;;2.32;62.88;99210.03;5090437;28;20115;-48
2022/01/07 05:00:04;;;;;;;18.08;10.70;;;;;;;1.97;64.21;99206.16;5091947;28;20177;-47
2022/01/07 05:02:30;;;;;;;16.15;11.50;;;;;;;1.73;64.85;99216.84;5091678;28;20020;-48
2022/01/07 05:04:56;;;;;;;17.83;9.57;;;;;;;1.51;65.87;99214.41;5091516;28;20502;-47
2022/01/07 05:07:21;;;;;;;16.92;10.00;;;;;;;1.41;66.35;99211.81;5091638;28;20020;-47
2022/01/07 05:09:47;;;;;;;14.00;9.93;;;;;;;1.38;66.39;99214.63;5091622;28;20497;-49
2022/01/07 05:12:13;;;;;;;17.13;10.55;;;;;;;1.28;66.95;99212.00;5091608;28;20020;-48
2022/01/07 05:14:38;;;;;;;18.35;10.57;;;;;;;1.22;66.86;99217.69;5091581;28;20043;-47
2022/01/07 05:17:05;;;;;;;19.30;12.32;;;;;;;1.20;67.86;99219.56;5091546;28;20490;-48
2022/01/07 05:19:30;;;;;;;17.45;10.73;;;;;;;1.22;67.40;99222.84;5091566;28;20021;-47
2022/01/07 05:21:56;;;;;;;18.55;13.02;;;;;;;1.25;68.16;99227.78;5091408;28;20054;-47
2022/01/07 05:24:22;;;;;;;25.42;13.45;;;;;;;1.22;68.09;99222.84;5091469;28;20486;-48
2022/01/07 05:26:47;;;;;;;17.67;11.32;;;;;;;1.25;67.86;99219.19;5091196;28;20044;-47
2022/01/07 05:29:13;;;;;;;14.95;10.70;;;;;;;1.24;67.97;99231.28;5091449;28;20482;-47
2022/01/07 05:31:39;;;;;;;21.98;11.95;;;;;;;1.26;68.17;99234.56;5091421;28;20027;-47
2022/01/07 05:34:04;;;;;;;34.63;23.67;;;;;;;1.49;68.23;99229.25;5091422;28;20069;-49
2022/01/07 05:36:30;;;;;;;18.75;10.60;;;;;;;1.77;67.89;99223.41;5091338;28;20024;-48
2022/01/07 05:38:56;;;;;;;19.33;11.07;;;;;;;1.98;67.44;99235.44;5091354;28;20770;-48
2022/01/07 05:41:22;;;;;;;16.98;10.73;;;;;;;2.10;66.85;99236.16;5091263;28;20078;-47
2022/01/07 05:43:48;;;;;;;21.42;9.82;;;;;;;1.96;66.15;99245.13;5090049;28;20449;-47
2022/01/07 05:46:15;;;;;;;21.27;9.98;;;;;;;1.98;66.52;99249.22;5094911;28;20497;-48
2022/01/07 05:48:43;;;;;;;20.63;15.98;;;;;;;1.90;66.11;99238.69;5094957;28;20525;-48
2022/01/07 05:51:09;;;;;;;17.65;9.10;;;;;;;1.73;66.12;99237.56;5094902;28;20024;-48
2022/01/07 05:53:34;;;;;;;15.95;10.23;;;;;;;1.70;67.04;99235.22;5093556;28;20027;-48
2022/01/07 05:56:00;;;;;;;22.60;11.63;;;;;;;1.87;67.06;99244.16;5094744;28;20619;-48
2022/01/07 05:58:26;;;;;;;17.17;11.63;;;;;;;2.04;66.43;99244.47;5094750;28;20528;-48
2022/01/07 06:00:52;;;;;;;19.15;10.98;;;;;;;2.21;65.99;99241.22;5093295;28;20028;-47
2022/01/07 06:03:17;;;;;;;18.55;11.73;;;;;;;2.29;65.47;99243.97;5094705;28;20012;-48
2022/01/07 06:05:43;;;;;;;19.30;10.75;;;;;;;2.36;65.31;99234.72;5094705;28;20107;-47
2022/01/07 06:08:09;;;;;;;16.98;10.57;;;;;;;2.38;65.43;99234.59;5094856;28;20035;-49
2022/01/07 06:10:35;;;;;;;18.20;11.13;;;;;;;2.41;65.43;99223.94;5094551;28;20574;-48
2022/01/07 06:13:01;;;;;;;26.63;17.52;;;;;;;2.50;65.32;99230.91;5094472;28;20028;-48
2022/01/07 06:15:27;;;;;;;18.40;11.73;;;;;;;2.53;64.93;99232.41;5094692;28;20137;-48
2022/01/07 06:17:53;;;;;;;24.08;12.13;;;;;;;2.60;65.06;99228.34;5094363;28;20024;-49
2022/01/07 06:20:19;;;;;;;19.98;11.93;;;;;;;2.61;64.32;99227.38;5093017;28;20496;-47
2022/01/07 06:22:45;;;;;;;18.10;10.68;;;;;;;2.54;64.56;99232.28;5092974;28;20214;-48
2022/01/07 06:25:11;;;;;;;18.42;10.27;;;;;;;2.54;64.32;99231.47;5094163;28;20111;-47
2022/01/07 06:27:38;;;;;;;20.42;9.90;;;;;;;2.46;64.80;99241.69;5094031;28;20052;-47
2022/01/07 06:30:06;;;;;;;19.30;8.98;;;;;;;2.43;64.58;99247.94;5092839;28;20024;-47
2022/01/07 06:32:32;;;;;;;17.17;9.40;;;;;;;2.34;64.63;99259.13;5094131;28;20032;-48
2022/01/07 06:34:57;;;;;;;20.27;10.43;;;;;;;2.11;64.70;99249.00;5094148;28;20052;-47
2022/01/07 06:37:23;;;;;;;16.73;10.75;;;;;;;1.91;65.76;99245.53;5093995;28;20020;-48
2022/01/07 06:39:49;;;;;;;23.23;11.05;;;;;;;1.95;65.84;99252.06;5094017;28;20389;-48
2022/01/07 06:42:14;;;;;;;19.73;10.13;;;;;;;1.96;65.84;99245.13;5093851;28;20024;-48
2022/01/07 06:44:40;;;;;;;18.35;10.77;;;;;;;2.01;65.72;99240.34;5093878;28;20027;-48
2022/01/07 06:47:06;;;;;;;18.38;9.38;;;;;;;1.92;65.63;99229.03;5092602;28;20028;-48
2022/01/07 06:49:32;;;;;;;15.82;9.30;;;;;;;1.68;65.75;99237.09;5093873;28;20499;-48
2022/01/07 06:51:58;;;;;;;15.13;8.88;;;;;;;1.44;66.99;99231.41;5092438;28;20506;-48
2022/01/07 06:54:26;;;;;;;11.73;7.70;;;;;;;1.25;67.66;99232.09;5093735;28;20016;-48
2022/01/07 06:56:51;;;;;;;16.85;10.30;;;;;;;1.09;68.10;99219.66;5093308;28;20028;-48
2022/01/07 06:59:17;;;;;;;17.25;10.57;;;;;;;1.06;68.69;99230.25;5092302;28;20024;-48
2022/01/07 07:01:46;;;;;;;24.20;10.65;;;;;;;1.23;69.17;99229.69;5093600;28;20056;-48
2022/01/07 07:04:12;;;;;;;23.98;12.25;;;;;;;1.40;68.25;99238.59;5093539;28;20024;-48
2022/01/07 07:06:38;;;;;;;19.13;11.05;;;;;;;1.47;67.91;99231.97;5093330;28;20341;-47
2022/01/07 07:09:05;;;;;;;16.42;11.15;;;;;;;1.57;68.08;99238.03;5093383;28;20016;-48
2022/01/07 07:11:31;;;;;;;23.70;13.68;;;;;;;1.65;67.65;99231.38;5093339;28;20032;-48
2022/01/07 07:13:57;;;;;;;24.25;12.30;;;;;;;1.64;67.72;99233.13;5093291;28;20405;-48
2022/01/07 07:16:23;;;;;;;27.80;11.73;;;;;;;1.68;67.45;99234.53;5091956;28;20036;-47
2022/01/07 07:18:49;;;;;;;25.40;12.70;;;;;;;1.68;66.96;99231.13;5091920;28;20055;-48
2022/01/07 07:21:15;;;;;;;28.80;12.20;;;;;;;1.47;67.08;99231.97;5093156;28;20034;-48
2022/01/07 07:23:41;;;;;;;21.60;13.40;;;;;;;1.23;67.41;99234.84;5093088;28;20020;-48
2022/01/07 07:26:06;;;;;;;34.20;12.68;;;;;;;1.06;67.90;99236.22;5091392;28;20082;-47
2022/01/07 07:28:36;;;;;;;32.78;19.52;;;;;;;1.11;68.11;99233.28;5093053;28;20028;-48
2022/01/07 07:31:14;;;;;;;20.92;11.57;;;;;;;1.20;69.02;99228.13;5092960;28;20032;-47
2022/01/07 07:34:06;;;;;;;35.33;13.50;;;;;;;1.54;68.67;99221.94;5091674;28;20028;-47
2022/01/07 07:36:31;;;;;;;19.63;11.10;;;;;;;1.85;68.42;99219.31;5092707;28;20020;-47
2022/01/07 07:39:03;;;;;;;20.25;11.52;;;;;;;1.97;67.64;99216.53;5091451;28;20024;-48
2022/01/07 07:41:30;;;;;;;25.77;12.95;;;;;;;2.28;67.60;99213.03;5092837;28;20031;-48
2022/01/07 07:43:57;;;;;;;22.65;13.02;;;;;;;2.66;66.43;99206.25;5092765;28;20060;-48
2022/01/07 07:46:24;;;;;;;24.30;12.07;;;;;;;2.71;65.18;99206.66;5092564;28;20044;-48
2022/01/07 07:48:51;;;;;;;19.65;11.25;;;;;;;2.93;65.95;99213.31;5092686;28;20566;-48
2022/01/07 07:51:18;;;;;;;25.27;12.05;;;;;;;3.78;65.40;99212.41;5091294;28;20516;-48
2022/01/07 07:53:45;;;;;;;25.65;10.95;;;;;;;4.98;63.96;99219.09;5092566;28;20428;-48
2022/01/07 07:56:14;;;;;;;20.58;9.73;;;;;;;5.79;62.11;99207.56;5092452;28;20119;-48
2022/01/07 07:58:40;;;;;;;27.65;11.65;;;;;;;6.32;59.65;99215.25;5091106;28;20028;-48
2022/01/07 08:01:06;;;;;;;28.05;11.35;;;;;;;6.31;58.05;99222.22;5092415;28;20035;-48
2022/01/07 08:03:32;;;;;;;23.23;12.95;;;;;;;5.89;57.78;99225.66;5092329;28;20047;-48
2022/01/07 08:05:58;;;;;;;25.63;11.60;;;;;;;5.55;58.53;99220.44;5092514;28;20024;-48
2022/01/07 08:08:24;;;;;;;19.00;11.63;;;;;;;5.55;58.77;99223.03;5091700;28;20024;-48
2022/01/07 08:10:51;;;;;;;19.42;10.85;;;;;;;5.63;58.34;99220.47;5092170;28;20036;-47
2022/01/07 08:16:02;;;;;;;21.65;13.25;;;;;;;5.61;57.07;99227.63;5092192;28;20402;-48
2022/01/07 08:18:33;;;;;;;35.50;13.57;;;;;;;5.39;57.57;99234.19;5092215;28;20024;-49
2022/01/07 08:21:02;;;;;;;28.65;13.88;;;;;;;5.35;57.81;99231.09;5092133;28;20033;-48
2022/01/07 08:23:28;;;;;;;24.92;11.75;;;;;;;5.27;56.85;99233.63;5092257;28;20051;-48
2022/01/07 08:25:54;;;;;;;18.88;11.95;;;;;;;5.04;57.28;99238.50;5091790;28;20070;-48
2022/01/07 08:28:24;;;;;;;18.23;11.82;;;;;;;4.88;58.49;99246.16;5092011;28;20055;-48
2022/01/07 08:31:23;;;;;;;20.80;12.20;;;;;;;5.02;58.50;99247.44;5092007;28;20035;-48
2022/01/07 08:36:32;;;;;;;17.10;11.50;;;;;;;6.73;57.17;99254.41;5091992;28;20108;-48
2022/01/07 08:38:59;;;;;;;17.08;10.63;;;;;;;7.55;54.75;99243.94;5090616;28;20028;-49
2022/01/07 08:41:30;;;;;;;17.00;10.32;;;;;;;8.18;53.59;99245.66;5091908;28;20485;-48
2022/01/07 08:43:57;;;;;;;17.13;11.00;;;;;;;8.59;53.01;99245.47;5090551;28;20502;-48
2022/01/07 08:46:23;;;;;;;16.25;10.95;;;;;;;8.25;51.39;99252.81;5090460;28;20401;-49
2022/01/07 08:48:49;;;;;;;25.58;13.80;;;;;;;7.53;50.96;99248.50;5090508;28;20020;-49
2022/01/07 08:51:14;;;;;;;22.20;12.43;;;;;;;6.67;51.96;99245.44;5091835;28;20024;-48
2022/01/07 08:53:40;;;;;;;25.88;13.63;;;;;;;6.40;53.69;99254.38;5091805;28;20028;-48
2022/01/07 08:56:07;;;;;;;22.25;12.18;;;;;;;7.20;53.69;99262.44;5091760;28;20028;-48
2022/01/07 08:58:33;;;;;;;25.95;12.15;;;;;;;8.38;52.61;99250.47;5091764;28;20494;-48
2022/01/07 09:00:59;;;;;;;23.90;9.80;;;;;;;9.36;49.93;99255.00;5091793;28;20024;-49
2022/01/07 09:03:26;;;;;;;17.20;11.55;;;;;;;9.76;47.22;99255.59;5091654;28;20374;-49
2022/01/07 09:05:51;;;;;;;17.15;10.38;;;;;;;10.10;45.87;99248.97;5091561;28;20028;-49
2022/01/07 09:08:17;;;;;;;17.45;11.13;;;;;;;10.36;45.55;99252.91;5091721;28;20553;-48
2022/01/07 09:10:44;;;;;;;18.13;11.23;;;;;;;10.13;45.17;99253.03;5091637;28;20055;-49
2022/01/07 09:13:11;;;;;;;21.70;12.95;;;;;;;9.34;45.48;99259.63;5091582;28;20107;-49
2022/01/07 09:15:37;;;;;;;25.67;12.55;;;;;;;8.72;46.60;99252.75;5090258;28;20036;-49
2022/01/07 09:18:11;;;;;;;21.40;13.82;;;;;;;8.35;47.71;99261.25;5092063;28;20059;-49
2022/01/07 09:20:42;;;;;;;22.58;13.02;;;;;;;8.03;47.91;99267.47;5095543;28;20032;-49
2022/01/07 09:23:10;;;;;;;23.13;13.57;;;;;;;7.82;48.96;99260.19;5095527;28;20031;-48
2022/01/07 09:25:36;;;;;;;37.50;15.15;;;;;;;7.60;49.45;99262.53;5095300;28;20024;-49
2022/01/07 09:28:02;;;;;;;21.00;14.15;;;;;;;6.97;50.01;99267.47;5095237;28;20093;-49
2022/01/07 09:30:28;;;;;;;30.67;14.18;;;;;;;6.42;50.95;99269.81;5094040;28;20036;-49
2022/01/07 09:32:54;;;;;;;27.13;13.50;;;;;;;6.30;52.04;99266.69;5095235;28;20024;-48
2022/01/07 09:35:20;;;;;;;24.98;13.68;;;;;;;6.48;52.17;99272.63;5095288;28;20489;-48
2022/01/07 09:37:46;;;;;;;24.67;14.02;;;;;;;6.72;52.61;99281.47;5093862;28;20052;-49
2022/01/07 09:40:12;;;;;;;27.00;14.32;;;;;;;6.89;52.36;99272.69;5095101;28;20148;-49
2022/01/07 09:42:39;;;;;;;21.70;13.75;;;;;;;7.05;51.39;99281.53;5095152;28;20724;-49
2022/01/07 09:45:06;;;;;;;22.73;14.18;;;;;;;6.99;51.15;99282.97;5095001;28;20020;-49
2022/01/07 09:47:31;;;;;;;20.52;12.00;;;;;;;6.91;51.11;99290.81;5094991;28;20032;-49
2022/01/07 09:49:57;;;;;;;21.30;11.60;;;;;;;6.65;51.88;99293.53;5093667;28;20024;-49
2022/01/07 09:52:25;;;;;;;25.95;12.65;;;;;;;6.47;52.81;99297.06;5093519;28;20020;-49
2022/01/07 09:54:51;;;;;;;20.88;13.07;;;;;;;6.11;52.82;99302.47;5094909;28;20023;-48
2022/01/07 09:57:17;;;;;;;28.70;12.13;;;;;;;5.85;53.84;99306.88;5094739;28;20020;-48
2022/01/07 09:59:52;;;;;;;22.63;12.98;;;;;;;5.95;54.74;99300.59;5093572;28;20056;-48
2022/01/07 10:02:17;;;;;;;21.65;12.77;;;;;;;6.50;53.98;99304.59;5094772;28;20516;-49
2022/01/07 10:04:44;;;;;;;18.80;11.45;;;;;;;7.17;52.54;99303.69;5094682;28;20021;-48
2022/01/07 10:07:12;;;;;;;28.25;18.27;;;;;;;7.56;51.73;99298.59;5094568;28;20032;-48
2022/01/07 10:09:41;;;;;;;28.73;17.35;;;;;;;7.67;51.39;99296.66;5094631;28;20066;-48
2022/01/07 10:12:08;;;;;;;20.85;14.25;;;;;;;7.61;51.04;99305.97;5094579;28;20031;-49
2022/01/07 10:14:36;;;;;;;89.60;17.58;;;;;;;7.61;50.79;99303.34;5094469;28;20060;-49
2022/01/07 10:17:03;;;;;;;53.85;16.75;;;;;;;7.53;51.92;99303.38;5094411;28;20116;-49
2022/01/07 10:19:35;;;;;;;39.47;18.65;;;;;;;7.76;51.40;99306.91;5094383;28;20024;-49
2022/01/07 10:22:03;;;;;;;39.88;18.00;;;;;;;8.09;51.67;99296.38;5092971;28;20036;-49
2022/01/07 10:24:29;;;;;;;27.50;15.60;;;;;;;8.34;50.88;99298.88;5092990;28;20020;-49
2022/01/07 10:27:13;;;;;;;62.20;17.75;;;;;;;8.58;51.26;99295.34;5093958;28;20093;-49
2022/01/07 10:29:44;;;;;;;64.85;18.30;;;;;;;8.91;49.76;99306.41;5093660;28;20016;-49
2022/01/07 10:32:19;;;;;;;63.53;17.75;;;;;;;9.50;49.91;99295.31;5094219;28;20107;-49
2022/01/07 10:35:14;;;;;;;63.55;19.33;;;;;;;10.57;49.04;99287.06;5092827;28;20393;-49
2022/01/07 10:37:51;;;;;;;71.90;18.45;;;;;;;11.46;46.53;99285.84;5092160;28;20119;-50
2022/01/07 10:40:21;;;;;;;113.07;21.48;;;;;;;11.62;45.74;99276.06;5094057;28;20032;-49
2022/01/07 10:42:46;;;;;;;209.98;29.33;;;;;;;11.49;45.57;99276.75;5094313;28;20066;-50
2022/01/07 10:45:12;;;;;;;100.50;22.42;;;;;;;11.15;45.64;99268.66;5093783;28;20580;-50
2022/01/07 10:47:38;;;;;;;34.25;13.90;;;;;;;10.74;45.46;99268.47;5093859;28;20020;-49
2022/01/07 10:50:16;;;;;;;26.10;13.60;;;;;;;10.28;45.86;99263.47;5093797;28;20020;-50
2022/01/07 10:52:42;;;;;;;29.38;15.07;;;;;;;9.78;46.43;99252.78;5092432;28;20038;-49
2022/01/07 10:55:10;;;;;;;27.88;14.77;;;;;;;9.28;47.27;99255.09;5093712;28;20131;-49
2022/01/07 10:57:41;;;;;;;54.00;48.15;;;;;;;8.91;47.42;99248.03;5093611;28;20335;-49
2022/01/07 11:00:15;;;;;;;96.95;86.55;;;;;;;8.46;48.56;99254.88;5092255;28;20020;-48
2022/01/07 11:02:41;;;;;;;66.22;57.28;;;;;;;8.14;49.13;99254.03;5093690;28;20028;-49
2022/01/07 11:05:09;;;;;;;137.23;123.43;;;;;;;8.26;49.49;99257.06;5093400;28;20394;-49
2022/01/07 11:07:38;;;;;;;48.33;36.90;;;;;;;8.56;50.13;99243.19;5093500;28;20397;-49
2022/01/07 11:10:06;;;;;;;33.97;22.25;;;;;;;9.09;48.87;99240.66;5093380;28;20126;-49
2022/01/07 11:12:33;;;;;;;31.80;22.98;;;;;;;9.37;48.07;99237.47;5092062;28;20028;-49
2022/01/07 11:14:59;;;;;;;61.72;55.10;;;;;;;9.55;47.48;99224.03;5093366;28;20031;-49
2022/01/07 11:17:27;;;;;;;104.40;93.43;;;;;;;9.25;45.95;99207.47;5093258;28;20119;-48
2022/01/07 11:19:59;;;;;;;84.68;75.47;;;;;;;8.19;46.84;99195.00;5093251;28;20418;-50
2022/01/07 11:22:26;;;;;;;81.00;72.03;;;;;;;7.46;49.20;99195.31;5093231;28;20020;-49
2022/01/07 11:25:07;;;;;;;58.72;52.70;;;;;;;6.98;50.55;99205.66;5091739;28;20035;-49
2022/01/07 11:27:54;;;;;;;57.42;47.67;;;;;;;6.71;52.48;99206.81;5091538;28;20054;-48
2022/01/07 11:30:23;;;;;;;31.48;21.85;;;;;;;6.73;52.95;99194.44;5093101;28;20418;-48
2022/01/07 11:32:53;;;;;;;22.70;11.10;;;;;;;6.96;52.05;99191.97;5093050;28;20095;-49